Shinkai Maru — JJ4012 — position and weather

sailwx.info

Track history (hours):
 
Tides and Currents Weather Stations Pressure Air Temp Water Temp Dewpoint Dewpoint Depression Visibility Wind Speed Wind Dir Waves Ship Positions

Shinkai Maru

Last reported at 2016-May-31 01:32 UTC. Time now 2016-May-31 04:02 UTC.
Position N 34°33' E 135°24'.

Length 76 m; draft 4.1 m.

Type: Cargo ship. MMSI: 431301346.

Date/timePositionNaut miles runAvg speedWind from/ knotsBaromVisibWave heightAir tempDewpointWater temp
2016-May-31 01:32N 34°33' E 135°24'2 2.4
2016-May-31 00:33N 34°33' E 135°21'1110.5
2016-May-30 23:33N 34°34' E 135°08'1212.2
2016-May-30 22:33N 34°37' E 134°54'6 0.3
2016-May-30 05:21N 34°40' E 134°48'1112.3
2016-May-30 04:26N 34°37' E 135°01'1112.1
2016-May-30 03:34N 34°35' E 135°14'7 5.4
2016-May-30 02:10N 34°32' E 135°22'0 0.0
2016-May-30 00:22N 34°32' E 135°22'0 0.0
2016-May-29 23:28N 34°32' E 135°22'0 0.0
2016-May-29 22:28N 34°32' E 135°22'0 0.0
2016-May-29 21:22N 34°32' E 135°22'0 0.1
2016-May-29 20:28N 34°32' E 135°22'0 0.0
2016-May-29 18:22N 34°32' E 135°22'0 0.1
2016-May-29 17:28N 34°32' E 135°22'0 0.0
2016-May-29 16:28N 34°32' E 135°22'0 0.0
2016-May-29 10:28N 34°32' E 135°22'6 6.9
2016-May-29 09:32N 34°29' E 135°15'2110.7
2016-May-29 07:33N 34°11' E 135°02'238 9.8
2016-May-28 07:12N 35°08' E 139°42'811.7
2016-May-28 06:33N 35°15' E 139°46'1111.2
2016-May-28 05:33N 35°26' E 139°43'3 2.5
2016-May-28 04:32N 35°27' E 139°41'0 0.0
2016-May-28 03:32N 35°27' E 139°41'0 0.0
2016-May-28 02:32N 35°27' E 139°41'0 0.0
2016-May-28 01:32N 35°27' E 139°41'0 0.0
2016-May-28 00:32N 35°27' E 139°41'0 0.0
2016-May-27 23:32N 35°27' E 139°41'0 0.0
2016-May-27 22:32N 35°27' E 139°41'0 0.0
2016-May-27 21:32N 35°27' E 139°41'0 0.0
2016-May-27 20:32N 35°27' E 139°41'0 0.0
2016-May-27 19:32N 35°27' E 139°41'0 0.0
2016-May-27 18:32N 35°27' E 139°41'0 0.0
2016-May-27 17:32N 35°27' E 139°41'0 0.0
2016-May-27 16:32N 35°27' E 139°41'0 0.0
2016-May-27 15:32N 35°27' E 139°41'0 0.0
2016-May-27 14:29N 35°27' E 139°41'0 0.0
2016-May-27 13:32N 35°27' E 139°41'0 0.0
2016-May-27 12:32N 35°27' E 139°41'0 0.0
2016-May-27 11:32N 35°27' E 139°41'0 0.0
2016-May-27 10:32N 35°27' E 139°41'0 0.0
2016-May-27 09:32N 35°27' E 139°41'0 0.0
2016-May-27 08:32N 35°27' E 139°41'0 0.0
2016-May-27 07:32N 35°27' E 139°41'0 0.0
2016-May-27 06:32N 35°27' E 139°41'4 3.8
2016-May-27 05:34N 35°25' E 139°43'1110.8
2016-May-27 04:33N 35°14' E 139°47'244 8.9
2016-May-26 01:15N 34°14' E 134°58'910.9
2016-May-26 00:23N 34°24' E 134°59'1011.2
2016-May-25 23:32N 34°33' E 135°02'8 8.6
2016-May-25 22:33N 34°37' E 134°54'5 0.1
2016-May-24 08:22N 34°41' E 134°49'8 9.1
2016-May-24 07:31N 34°38' E 134°58'7 7.3
2016-May-24 06:33N 34°34' E 135°05'1111.4
2016-May-24 05:33N 34°23' E 135°02'1010.2
2016-May-24 04:33N 34°13' E 134°60'  
2016-May-21 22:33N 34°12' E 134°60'1211.2
2016-May-21 21:30N 34°24' E 134°60'1111.4
2016-May-21 20:33N 34°35' E 135°03'1311.4
2016-May-21 19:26N 34°40' E 134°49'7 0.8
2016-May-21 09:30N 34°37' E 134°58'1212.6
2016-May-21 08:33N 34°37' E 135°12'6 5.9
2016-May-21 07:32N 34°42' E 135°15'0 0.0
2016-May-21 06:32N 34°42' E 135°15'0 0.0
2016-May-21 05:32N 34°42' E 135°15'0 0.0
2016-May-21 04:32N 34°42' E 135°15'0 0.0
2016-May-21 03:26N 34°42' E 135°15'0 0.0
2016-May-21 02:32N 34°42' E 135°15'  
Track history (hours):
 
Tides and Currents Weather Stations Pressure Air Temp Water Temp Dewpoint Dewpoint Depression Visibility Wind Speed Wind Dir Waves Ship Positions

Shinkai Maru

Last reported at 2016-May-31 01:32 UTC. Time now 2016-May-31 04:02 UTC.
Position N 34°33' E 135°24'.

Length 76 m; draft 4.1 m.

Type: Cargo ship. MMSI: 431301346.

Date/timePositionNaut miles runAvg speedWind from/ knotsBaromVisibWave heightAir tempDewpointWater temp
2016-May-31 01:32N 34°33' E 135°24'2 2.4
2016-May-31 00:33N 34°33' E 135°21'1110.5
2016-May-30 23:33N 34°34' E 135°08'1212.2
2016-May-30 22:33N 34°37' E 134°54'6 0.3
2016-May-30 05:21N 34°40' E 134°48'1112.3
2016-May-30 04:26N 34°37' E 135°01'1112.1
2016-May-30 03:34N 34°35' E 135°14'7 5.4
2016-May-30 02:10N 34°32' E 135°22'0 0.0
2016-May-30 00:22N 34°32' E 135°22'0 0.0
2016-May-29 23:28N 34°32' E 135°22'0 0.0
2016-May-29 22:28N 34°32' E 135°22'0 0.0
2016-May-29 21:22N 34°32' E 135°22'0 0.1
2016-May-29 20:28N 34°32' E 135°22'0 0.0
2016-May-29 18:22N 34°32' E 135°22'0 0.1
2016-May-29 17:28N 34°32' E 135°22'0 0.0
2016-May-29 16:28N 34°32' E 135°22'0 0.0
2016-May-29 10:28N 34°32' E 135°22'6 6.9
2016-May-29 09:32N 34°29' E 135°15'2110.7
2016-May-29 07:33N 34°11' E 135°02'238 9.8
2016-May-28 07:12N 35°08' E 139°42'811.7
2016-May-28 06:33N 35°15' E 139°46'1111.2
2016-May-28 05:33N 35°26' E 139°43'3 2.5
2016-May-28 04:32N 35°27' E 139°41'0 0.0
2016-May-28 03:32N 35°27' E 139°41'0 0.0
2016-May-28 02:32N 35°27' E 139°41'0 0.0
2016-May-28 01:32N 35°27' E 139°41'0 0.0
2016-May-28 00:32N 35°27' E 139°41'0 0.0
2016-May-27 23:32N 35°27' E 139°41'0 0.0
2016-May-27 22:32N 35°27' E 139°41'0 0.0
2016-May-27 21:32N 35°27' E 139°41'0 0.0
2016-May-27 20:32N 35°27' E 139°41'0 0.0
2016-May-27 19:32N 35°27' E 139°41'0 0.0
2016-May-27 18:32N 35°27' E 139°41'0 0.0
2016-May-27 17:32N 35°27' E 139°41'0 0.0
2016-May-27 16:32N 35°27' E 139°41'0 0.0
2016-May-27 15:32N 35°27' E 139°41'0 0.0
2016-May-27 14:29N 35°27' E 139°41'0 0.0
2016-May-27 13:32N 35°27' E 139°41'0 0.0
2016-May-27 12:32N 35°27' E 139°41'0 0.0
2016-May-27 11:32N 35°27' E 139°41'0 0.0
2016-May-27 10:32N 35°27' E 139°41'0 0.0
2016-May-27 09:32N 35°27' E 139°41'0 0.0
2016-May-27 08:32N 35°27' E 139°41'0 0.0
2016-May-27 07:32N 35°27' E 139°41'0 0.0
2016-May-27 06:32N 35°27' E 139°41'4 3.8
2016-May-27 05:34N 35°25' E 139°43'1110.8
2016-May-27 04:33N 35°14' E 139°47'244 8.9
2016-May-26 01:15N 34°14' E 134°58'910.9
2016-May-26 00:23N 34°24' E 134°59'1011.2
2016-May-25 23:32N 34°33' E 135°02'8 8.6
2016-May-25 22:33N 34°37' E 134°54'5 0.1
2016-May-24 08:22N 34°41' E 134°49'8 9.1
2016-May-24 07:31N 34°38' E 134°58'7 7.3
2016-May-24 06:33N 34°34' E 135°05'1111.4
2016-May-24 05:33N 34°23' E 135°02'1010.2
2016-May-24 04:33N 34°13' E 134°60'  
2016-May-21 22:33N 34°12' E 134°60'1211.2
2016-May-21 21:30N 34°24' E 134°60'1111.4
2016-May-21 20:33N 34°35' E 135°03'1311.4
2016-May-21 19:26N 34°40' E 134°49'7 0.8
2016-May-21 09:30N 34°37' E 134°58'1212.6
2016-May-21 08:33N 34°37' E 135°12'6 5.9
2016-May-21 07:32N 34°42' E 135°15'0 0.0
2016-May-21 06:32N 34°42' E 135°15'0 0.0
2016-May-21 05:32N 34°42' E 135°15'0 0.0
2016-May-21 04:32N 34°42' E 135°15'0 0.0
2016-May-21 03:26N 34°42' E 135°15'0 0.0
2016-May-21 02:32N 34°42' E 135°15'  

Dump ship's entire track history